Pagina principale
METAR-TAF:

METAR-TAF

Aeroporti :

Air Force Base Waterkloof

Waterkloof, Sudafrica

latitudine: 25-50S, longitudine: 028-13E, altezza: 1498 m

Osservazione

Il bollettino è stato emesso 58 minuti fa, alle 22:00 UTC
Vento 2 kt da sud-est
Temperature
Pressione 1030 hPa

METAR: FAWK 162200Z AUTO 14002KT //// // ////// ///// Q1030

Ora: 00:58 (22:58 UTC)

Previsione

Il bollettino è stato emesso 13 ore e 58 minuti fa, alle 09:00 UTC
Previsione valida dal 16 alle 10 UTC al 16 alle 18 UTC
Vento 3 kt da direzioni variabili
Visibilità 10 km o più
nessuna nube inferiore a 1500 m e nessun cumulonembo
Evoluzione graduale
dal 16 alle 11 UTC al 16 alle 13 UTC
Vento 5 kt da nord/nord-ovest

TAF: FAWK 160900Z 1610/1618 VRB03KT CAVOK TX21/1612Z TN10/1618Z BECMG 1611/1613 34005KT

Osservazioni e previsioni meteorologiche di più di 4000 aeroporti (messaggi METAR e TAF).

Le stazioni disponibili sono rappresentate dai dischi gialli e rossi sulla carta.

Puntare il mouse per vedere il nome della stazione.

Clicca sopra per visualizzare le osservazioni e previsioni meteorologiche.

Per cambiare la mappa : fare clic sui pulsanti verdi con una croce nera per ingrandire, il pulsante verde con un trattino per diminuire, o sulla freccia verde per le mappe adiacenti.


METAR-TAF: